<?xml version="1.0" encoding="UTF-8"?>
<gpx xmlns="http://www.topografix.com/GPX/1/1" xmlns:gpsies="http://www.gpsies.com/GPX/1/0" creator="GPSies http://www.gpsies.com - &amp;#1087;&amp;#1088;&amp;#1086;&amp;#1077;&amp;#1082;&amp;#1090; &amp;#1074;&amp;#1090;&amp;#1086;&amp;#1088;&amp;#1086;&amp;#1084;&amp;#1072;&amp;#1081;&amp;#1089;&amp;#1082;&amp;#1080;&amp;#1077; &amp;#1058;&amp;#1077;&amp;#1074;&amp;#1083;&amp;#1080; - &amp;#1050;&amp;#1072;&amp;#1084;&amp;#1077;&amp;#1085;&amp;#1077;&amp;#1094;-&amp;#1050;&amp;#1072;&amp;#1084;&amp;#1077;&amp;#1085;&amp;#1102;&amp;#1082;&amp;#1080; -" version="1.1" xmlns:xsi="http://www.w3.org/2001/XMLSchema-instance" xsi:schemaLocation="http://www.topografix.com/GPX/1/1 http://www.topografix.com/GPX/1/1/gpx.xsd http://www.gpsies.com/GPX/1/0 http://www.gpsies.com/gpsies.xsd">
  <metadata>
    <name>проект второмайские Тевли - Каменец-Каменюки -</name>
    <author>
      <name>Alexxt</name>
      <link href="http://www.gpsies.com/mapUser.do?username=Alexxt">
        <text>Alexxt on GPSies.com</text>
        <type>GPSiesUserOnWeb</type>
      </link>
    </author>
    <link href="http://www.gpsies.com/map.do?fileId=dmcvzfopqndrffrd">
      <text>проект второмайские Тевли - Каменец-Каменюки - on GPSies.com</text>
      <type>trackOnWeb</type>
    </link>
    <time>2013-06-13T21:21:29Z</time>
    <extensions>
      <gpsies:property>one-way trip</gpsies:property>
      <gpsies:trackLengthMeter>89103.34018239516</gpsies:trackLengthMeter>
      <gpsies:totalAscentMeter>500.0</gpsies:totalAscentMeter>
      <gpsies:totalDescentMeter>492.0</gpsies:totalDescentMeter>
      <gpsies:minHeightMeter>139.0</gpsies:minHeightMeter>
      <gpsies:maxHeightMeter>197.0</gpsies:maxHeightMeter>
    </extensions>
  </metadata>
  <trk>
    <name>проект второмайские Тевли - Каменец-Каменюки - on GPSies.com</name>
    <link href="http://www.gpsies.com/map.do?fileId=dmcvzfopqndrffrd">
      <type>trackOnWeb</type>
    </link>
    <link href="http://www.gpsies.com/charts/dm/map/dmcvzfopqndrffrd_map.png">
      <type>elevationChartUrlMap</type>
    </link>
    <link href="http://www.gpsies.com/charts/dm/mapThumb/dmcvzfopqndrffrd_mapThumb.png">
      <type>elevationChartUrlMapThumb</type>
    </link>
    <link href="http://www.gpsies.com/charts/dm/tab/dmcvzfopqndrffrd_tab.png">
      <type>elevationChartUrlTab</type>
    </link>
    <trkseg>
      <trkpt lat="52.33980980" lon="24.23575400">
        <ele>150.00000</ele>
        <time>2010-01-01T00:00:00Z</time>
      </trkpt>
      <trkpt lat="52.34080620" lon="24.23601150">
        <ele>150.00000</ele>
        <time>2010-01-01T00:00:40Z</time>
      </trkpt>
      <trkpt lat="52.34604980" lon="24.21438210">
        <ele>150.00000</ele>
        <time>2010-01-01T00:10:09Z</time>
      </trkpt>
      <trkpt lat="52.34683630" lon="24.21060560">
        <ele>151.00000</ele>
        <time>2010-01-01T00:11:47Z</time>
      </trkpt>
      <trkpt lat="52.34699360" lon="24.20305250">
        <ele>150.00000</ele>
        <time>2010-01-01T00:14:51Z</time>
      </trkpt>
      <trkpt lat="52.35207920" lon="24.18983450">
        <ele>149.00000</ele>
        <time>2010-01-01T00:21:13Z</time>
      </trkpt>
      <trkpt lat="52.35391410" lon="24.18288230">
        <ele>152.00000</ele>
        <time>2010-01-01T00:24:18Z</time>
      </trkpt>
      <trkpt lat="52.35978520" lon="24.15696140">
        <ele>153.00000</ele>
        <time>2010-01-01T00:35:34Z</time>
      </trkpt>
      <trkpt lat="52.36319210" lon="24.15129660">
        <ele>154.00000</ele>
        <time>2010-01-01T00:38:49Z</time>
      </trkpt>
      <trkpt lat="52.36748980" lon="24.14185520">
        <ele>154.00000</ele>
        <time>2010-01-01T00:43:37Z</time>
      </trkpt>
      <trkpt lat="52.37168220" lon="24.13773530">
        <ele>153.00000</ele>
        <time>2010-01-01T00:46:52Z</time>
      </trkpt>
      <trkpt lat="52.37335900" lon="24.13567540">
        <ele>157.00000</ele>
        <time>2010-01-01T00:48:16Z</time>
      </trkpt>
      <trkpt lat="52.37550740" lon="24.13001060">
        <ele>159.00000</ele>
        <time>2010-01-01T00:50:59Z</time>
      </trkpt>
      <trkpt lat="52.37954190" lon="24.12237160">
        <ele>162.00000</ele>
        <time>2010-01-01T00:55:06Z</time>
      </trkpt>
      <trkpt lat="52.38090410" lon="24.11979670">
        <ele>169.00000</ele>
        <time>2010-01-01T00:56:29Z</time>
      </trkpt>
      <trkpt lat="52.38692880" lon="24.10692210">
        <ele>163.00000</ele>
        <time>2010-01-01T01:03:06Z</time>
      </trkpt>
      <trkpt lat="52.39001940" lon="24.09859650">
        <ele>152.00000</ele>
        <time>2010-01-01T01:07:04Z</time>
      </trkpt>
      <trkpt lat="52.39206220" lon="24.09627910">
        <ele>151.00000</ele>
        <time>2010-01-01T01:08:43Z</time>
      </trkpt>
      <trkpt lat="52.39478580" lon="24.09370420">
        <ele>151.00000</ele>
        <time>2010-01-01T01:10:49Z</time>
      </trkpt>
      <trkpt lat="52.39714260" lon="24.08949850">
        <ele>153.00000</ele>
        <time>2010-01-01T01:13:09Z</time>
      </trkpt>
      <trkpt lat="52.39871380" lon="24.08606520">
        <ele>155.00000</ele>
        <time>2010-01-01T01:14:53Z</time>
      </trkpt>
      <trkpt lat="52.39976120" lon="24.08306120">
        <ele>154.00000</ele>
        <time>2010-01-01T01:16:18Z</time>
      </trkpt>
      <trkpt lat="52.40002300" lon="24.07902710">
        <ele>155.00000</ele>
        <time>2010-01-01T01:17:57Z</time>
      </trkpt>
      <trkpt lat="52.40023250" lon="24.07507890">
        <ele>152.00000</ele>
        <time>2010-01-01T01:19:34Z</time>
      </trkpt>
      <trkpt lat="52.39829480" lon="24.06392090">
        <ele>148.00000</ele>
        <time>2010-01-01T01:24:17Z</time>
      </trkpt>
      <trkpt lat="52.39762700" lon="24.06113140">
        <ele>150.00000</ele>
        <time>2010-01-01T01:25:30Z</time>
      </trkpt>
      <trkpt lat="52.39781030" lon="24.05151840">
        <ele>155.00000</ele>
        <time>2010-01-01T01:29:25Z</time>
      </trkpt>
      <trkpt lat="52.39789550" lon="24.04696940">
        <ele>154.00000</ele>
        <time>2010-01-01T01:31:16Z</time>
      </trkpt>
      <trkpt lat="52.39807880" lon="24.04370780">
        <ele>150.00000</ele>
        <time>2010-01-01T01:32:36Z</time>
      </trkpt>
      <trkpt lat="52.39763360" lon="24.04173370">
        <ele>147.00000</ele>
        <time>2010-01-01T01:33:28Z</time>
      </trkpt>
      <trkpt lat="52.39794780" lon="24.03795710">
        <ele>150.00000</ele>
        <time>2010-01-01T01:35:01Z</time>
      </trkpt>
      <trkpt lat="52.39818350" lon="24.03576850">
        <ele>151.00000</ele>
        <time>2010-01-01T01:35:55Z</time>
      </trkpt>
      <trkpt lat="52.39820970" lon="24.03130530">
        <ele>149.00000</ele>
        <time>2010-01-01T01:37:44Z</time>
      </trkpt>
      <trkpt lat="52.39826210" lon="24.02684210">
        <ele>151.00000</ele>
        <time>2010-01-01T01:39:33Z</time>
      </trkpt>
      <trkpt lat="52.39841920" lon="24.01993270">
        <ele>150.00000</ele>
        <time>2010-01-01T01:42:22Z</time>
      </trkpt>
      <trkpt lat="52.39925710" lon="24.01508330">
        <ele>147.00000</ele>
        <time>2010-01-01T01:44:25Z</time>
      </trkpt>
      <trkpt lat="52.39980700" lon="24.01049130">
        <ele>151.00000</ele>
        <time>2010-01-01T01:46:20Z</time>
      </trkpt>
      <trkpt lat="52.40067110" lon="24.00645730">
        <ele>147.00000</ele>
        <time>2010-01-01T01:48:04Z</time>
      </trkpt>
      <trkpt lat="52.40145660" lon="24.00104990">
        <ele>144.00000</ele>
        <time>2010-01-01T01:50:20Z</time>
      </trkpt>
      <trkpt lat="52.40119470" lon="23.99748800">
        <ele>143.00000</ele>
        <time>2010-01-01T01:51:47Z</time>
      </trkpt>
      <trkpt lat="52.40066450" lon="23.99551390">
        <ele>141.00000</ele>
        <time>2010-01-01T01:52:40Z</time>
      </trkpt>
      <trkpt lat="52.39443880" lon="23.98530000">
        <ele>147.00000</ele>
        <time>2010-01-01T01:58:33Z</time>
      </trkpt>
      <trkpt lat="52.39378410" lon="23.98285380">
        <ele>145.00000</ele>
        <time>2010-01-01T01:59:38Z</time>
      </trkpt>
      <trkpt lat="52.39247470" lon="23.97641650">
        <ele>145.00000</ele>
        <time>2010-01-01T02:02:24Z</time>
      </trkpt>
      <trkpt lat="52.39247470" lon="23.97371290">
        <ele>148.00000</ele>
        <time>2010-01-01T02:03:30Z</time>
      </trkpt>
      <trkpt lat="52.39286750" lon="23.95371430">
        <ele>172.00000</ele>
        <time>2010-01-01T02:11:38Z</time>
      </trkpt>
      <trkpt lat="52.39299840" lon="23.94534580">
        <ele>174.00000</ele>
        <time>2010-01-01T02:15:03Z</time>
      </trkpt>
      <trkpt lat="52.39321450" lon="23.94118300">
        <ele>175.00000</ele>
        <time>2010-01-01T02:16:45Z</time>
      </trkpt>
      <trkpt lat="52.39578090" lon="23.92161360">
        <ele>171.00000</ele>
        <time>2010-01-01T02:24:54Z</time>
      </trkpt>
      <trkpt lat="52.39991830" lon="23.90195840">
        <ele>151.00000</ele>
        <time>2010-01-01T02:33:22Z</time>
      </trkpt>
      <trkpt lat="52.40059910" lon="23.89835350">
        <ele>147.00000</ele>
        <time>2010-01-01T02:34:54Z</time>
      </trkpt>
      <trkpt lat="52.40059910" lon="23.89646530">
        <ele>142.00000</ele>
        <time>2010-01-01T02:35:40Z</time>
      </trkpt>
      <trkpt lat="52.39939460" lon="23.89011380">
        <ele>144.00000</ele>
        <time>2010-01-01T02:38:23Z</time>
      </trkpt>
      <trkpt lat="52.39934220" lon="23.88676640">
        <ele>146.00000</ele>
        <time>2010-01-01T02:39:44Z</time>
      </trkpt>
      <trkpt lat="52.40038960" lon="23.88075820">
        <ele>148.00000</ele>
        <time>2010-01-01T02:42:17Z</time>
      </trkpt>
      <trkpt lat="52.40180350" lon="23.87114520">
        <ele>158.00000</ele>
        <time>2010-01-01T02:46:18Z</time>
      </trkpt>
      <trkpt lat="52.40326980" lon="23.86041640">
        <ele>169.00000</ele>
        <time>2010-01-01T02:50:47Z</time>
      </trkpt>
      <trkpt lat="52.40306030" lon="23.85518070">
        <ele>169.00000</ele>
        <time>2010-01-01T02:52:55Z</time>
      </trkpt>
      <trkpt lat="52.40222240" lon="23.83475300">
        <ele>162.00000</ele>
        <time>2010-01-01T03:01:15Z</time>
      </trkpt>
      <trkpt lat="52.40232060" lon="23.83372300">
        <ele>162.00000</ele>
        <time>2010-01-01T03:01:41Z</time>
      </trkpt>
      <trkpt lat="52.40318140" lon="23.82887360">
        <ele>157.00000</ele>
        <time>2010-01-01T03:03:44Z</time>
      </trkpt>
      <trkpt lat="52.40367890" lon="23.82509700">
        <ele>153.00000</ele>
        <time>2010-01-01T03:05:18Z</time>
      </trkpt>
      <trkpt lat="52.40386210" lon="23.82400270">
        <ele>156.00000</ele>
        <time>2010-01-01T03:05:46Z</time>
      </trkpt>
      <trkpt lat="52.40451670" lon="23.82333750">
        <ele>154.00000</ele>
        <time>2010-01-01T03:06:17Z</time>
      </trkpt>
      <trkpt lat="52.40532830" lon="23.82308000">
        <ele>147.00000</ele>
        <time>2010-01-01T03:06:50Z</time>
      </trkpt>
      <trkpt lat="52.40527600" lon="23.82235050">
        <ele>149.00000</ele>
        <time>2010-01-01T03:07:08Z</time>
      </trkpt>
      <trkpt lat="52.40502400" lon="23.82186770">
        <ele>149.00000</ele>
        <time>2010-01-01T03:07:23Z</time>
      </trkpt>
      <trkpt lat="52.40480140" lon="23.82134190">
        <ele>149.00000</ele>
        <time>2010-01-01T03:07:39Z</time>
      </trkpt>
      <trkpt lat="52.40442180" lon="23.82100930">
        <ele>151.00000</ele>
        <time>2010-01-01T03:07:56Z</time>
      </trkpt>
      <trkpt lat="52.40416820" lon="23.82023690">
        <ele>150.00000</ele>
        <time>2010-01-01T03:08:18Z</time>
      </trkpt>
      <trkpt lat="52.40477030" lon="23.81953950">
        <ele>146.00000</ele>
        <time>2010-01-01T03:08:47Z</time>
      </trkpt>
      <trkpt lat="52.40500600" lon="23.81923910">
        <ele>144.00000</ele>
        <time>2010-01-01T03:08:59Z</time>
      </trkpt>
      <trkpt lat="52.40499290" lon="23.81857390">
        <ele>143.00000</ele>
        <time>2010-01-01T03:09:15Z</time>
      </trkpt>
      <trkpt lat="52.40501910" lon="23.81789800">
        <ele>142.00000</ele>
        <time>2010-01-01T03:09:32Z</time>
      </trkpt>
      <trkpt lat="52.40482270" lon="23.81739370">
        <ele>141.00000</ele>
        <time>2010-01-01T03:09:47Z</time>
      </trkpt>
      <trkpt lat="52.40452820" lon="23.81687870">
        <ele>141.00000</ele>
        <time>2010-01-01T03:10:04Z</time>
      </trkpt>
      <trkpt lat="52.40424020" lon="23.81622430">
        <ele>141.00000</ele>
        <time>2010-01-01T03:10:23Z</time>
      </trkpt>
      <trkpt lat="52.40407000" lon="23.81590240">
        <ele>141.00000</ele>
        <time>2010-01-01T03:10:34Z</time>
      </trkpt>
      <trkpt lat="52.40398490" lon="23.81585950">
        <ele>141.00000</ele>
        <time>2010-01-01T03:10:37Z</time>
      </trkpt>
      <trkpt lat="52.40400450" lon="23.81522650">
        <ele>140.00000</ele>
        <time>2010-01-01T03:10:53Z</time>
      </trkpt>
      <trkpt lat="52.40393910" lon="23.81376740">
        <ele>140.00000</ele>
        <time>2010-01-01T03:11:29Z</time>
      </trkpt>
      <trkpt lat="52.40378850" lon="23.81291980">
        <ele>139.00000</ele>
        <time>2010-01-01T03:11:50Z</time>
      </trkpt>
      <trkpt lat="52.40329100" lon="23.81167530">
        <ele>139.00000</ele>
        <time>2010-01-01T03:12:27Z</time>
      </trkpt>
      <trkpt lat="52.40287870" lon="23.81059160">
        <ele>139.00000</ele>
        <time>2010-01-01T03:12:58Z</time>
      </trkpt>
      <trkpt lat="52.40208660" lon="23.80866050">
        <ele>139.00000</ele>
        <time>2010-01-01T03:13:55Z</time>
      </trkpt>
      <trkpt lat="52.40180680" lon="23.80520580">
        <ele>139.00000</ele>
        <time>2010-01-01T03:15:20Z</time>
      </trkpt>
      <trkpt lat="52.40181990" lon="23.80267380">
        <ele>139.00000</ele>
        <time>2010-01-01T03:16:22Z</time>
      </trkpt>
      <trkpt lat="52.40181990" lon="23.80157940">
        <ele>141.00000</ele>
        <time>2010-01-01T03:16:48Z</time>
      </trkpt>
      <trkpt lat="52.40187550" lon="23.79853240">
        <ele>142.00000</ele>
        <time>2010-01-01T03:18:03Z</time>
      </trkpt>
      <trkpt lat="52.40200640" lon="23.79720210">
        <ele>141.00000</ele>
        <time>2010-01-01T03:18:36Z</time>
      </trkpt>
      <trkpt lat="52.40446760" lon="23.79874700">
        <ele>141.00000</ele>
        <time>2010-01-01T03:20:21Z</time>
      </trkpt>
      <trkpt lat="52.40522690" lon="23.79694460">
        <ele>143.00000</ele>
        <time>2010-01-01T03:21:15Z</time>
      </trkpt>
      <trkpt lat="52.40588140" lon="23.79724500">
        <ele>142.00000</ele>
        <time>2010-01-01T03:21:42Z</time>
      </trkpt>
      <trkpt lat="52.40732130" lon="23.79617210">
        <ele>144.00000</ele>
        <time>2010-01-01T03:22:45Z</time>
      </trkpt>
      <trkpt lat="52.40775990" lon="23.79432670">
        <ele>145.00000</ele>
        <time>2010-01-01T03:23:34Z</time>
      </trkpt>
      <trkpt lat="52.41194850" lon="23.78883360">
        <ele>153.00000</ele>
        <time>2010-01-01T03:27:08Z</time>
      </trkpt>
      <trkpt lat="52.41679100" lon="23.78814690">
        <ele>154.00000</ele>
        <time>2010-01-01T03:30:23Z</time>
      </trkpt>
      <trkpt lat="52.44651540" lon="23.78437040">
        <ele>171.00000</ele>
        <time>2010-01-01T03:50:16Z</time>
      </trkpt>
      <trkpt lat="52.46335730" lon="23.78162380">
        <ele>172.00000</ele>
        <time>2010-01-01T04:01:34Z</time>
      </trkpt>
      <trkpt lat="52.48385170" lon="23.77922050">
        <ele>170.00000</ele>
        <time>2010-01-01T04:15:16Z</time>
      </trkpt>
      <trkpt lat="52.49127340" lon="23.77853390">
        <ele>171.00000</ele>
        <time>2010-01-01T04:20:14Z</time>
      </trkpt>
      <trkpt lat="52.50256020" lon="23.78728860">
        <ele>178.00000</ele>
        <time>2010-01-01T04:28:33Z</time>
      </trkpt>
      <trkpt lat="52.51196380" lon="23.78900520">
        <ele>179.00000</ele>
        <time>2010-01-01T04:34:52Z</time>
      </trkpt>
      <trkpt lat="52.55028840" lon="23.79381170">
        <ele>159.00000</ele>
        <time>2010-01-01T05:00:31Z</time>
      </trkpt>
      <trkpt lat="52.55446350" lon="23.79432670">
        <ele>149.00000</ele>
        <time>2010-01-01T05:03:18Z</time>
      </trkpt>
      <trkpt lat="52.55500160" lon="23.79430530">
        <ele>150.00000</ele>
        <time>2010-01-01T05:03:40Z</time>
      </trkpt>
      <trkpt lat="52.55570610" lon="23.79454130">
        <ele>151.00000</ele>
        <time>2010-01-01T05:04:09Z</time>
      </trkpt>
      <trkpt lat="52.55721940" lon="23.79559270">
        <ele>150.00000</ele>
        <time>2010-01-01T05:05:14Z</time>
      </trkpt>
      <trkpt lat="52.56001110" lon="23.79795310">
        <ele>148.00000</ele>
        <time>2010-01-01T05:07:20Z</time>
      </trkpt>
      <trkpt lat="52.56135470" lon="23.79921910">
        <ele>148.00000</ele>
        <time>2010-01-01T05:08:22Z</time>
      </trkpt>
      <trkpt lat="52.56211130" lon="23.80016320">
        <ele>147.00000</ele>
        <time>2010-01-01T05:09:00Z</time>
      </trkpt>
      <trkpt lat="52.56297220" lon="23.80044220">
        <ele>146.00000</ele>
        <time>2010-01-01T05:09:35Z</time>
      </trkpt>
      <trkpt lat="52.56537220" lon="23.80140780">
        <ele>146.00000</ele>
        <time>2010-01-01T05:11:14Z</time>
      </trkpt>
      <trkpt lat="52.56665040" lon="23.80196570">
        <ele>146.00000</ele>
        <time>2010-01-01T05:12:07Z</time>
      </trkpt>
      <trkpt lat="52.56911540" lon="23.80297420">
        <ele>154.00000</ele>
        <time>2010-01-01T05:13:49Z</time>
      </trkpt>
      <trkpt lat="52.56991100" lon="23.80314580">
        <ele>152.00000</ele>
        <time>2010-01-01T05:14:21Z</time>
      </trkpt>
      <trkpt lat="52.57075870" lon="23.80346770">
        <ele>152.00000</ele>
        <time>2010-01-01T05:14:56Z</time>
      </trkpt>
      <trkpt lat="52.57043260" lon="23.80254500">
        <ele>152.00000</ele>
        <time>2010-01-01T05:15:22Z</time>
      </trkpt>
      <trkpt lat="52.57093800" lon="23.80196570">
        <ele>157.00000</ele>
        <time>2010-01-01T05:15:46Z</time>
      </trkpt>
      <trkpt lat="52.57860570" lon="23.79080770">
        <ele>158.00000</ele>
        <time>2010-01-01T05:22:36Z</time>
      </trkpt>
      <trkpt lat="52.58585490" lon="23.79132270">
        <ele>159.00000</ele>
        <time>2010-01-01T05:27:27Z</time>
      </trkpt>
      <trkpt lat="52.60373820" lon="23.79261010">
        <ele>181.00000</ele>
        <time>2010-01-01T05:39:23Z</time>
      </trkpt>
      <trkpt lat="52.60733480" lon="23.79484170">
        <ele>169.00000</ele>
        <time>2010-01-01T05:41:57Z</time>
      </trkpt>
      <trkpt lat="52.60769960" lon="23.81818770">
        <ele>168.00000</ele>
        <time>2010-01-01T05:51:25Z</time>
      </trkpt>
      <trkpt lat="52.60759540" lon="23.85972970">
        <ele>178.00000</ele>
        <time>2010-01-01T06:08:15Z</time>
      </trkpt>
      <trkpt lat="52.62800960" lon="23.85981550">
        <ele>155.00000</ele>
        <time>2010-01-01T06:21:52Z</time>
      </trkpt>
      <trkpt lat="52.60759540" lon="23.86067390">
        <ele>179.00000</ele>
        <time>2010-01-01T06:35:29Z</time>
      </trkpt>
      <trkpt lat="52.60764750" lon="23.87517920">
        <ele>183.00000</ele>
        <time>2010-01-01T06:41:22Z</time>
      </trkpt>
      <trkpt lat="52.62343780" lon="23.87543670">
        <ele>171.00000</ele>
        <time>2010-01-01T06:51:54Z</time>
      </trkpt>
      <trkpt lat="52.61702860" lon="23.87578010">
        <ele>176.00000</ele>
        <time>2010-01-01T06:56:11Z</time>
      </trkpt>
      <trkpt lat="52.61687220" lon="23.89105790">
        <ele>181.00000</ele>
        <time>2010-01-01T07:02:22Z</time>
      </trkpt>
      <trkpt lat="52.60785600" lon="23.89122960">
        <ele>181.00000</ele>
        <time>2010-01-01T07:08:23Z</time>
      </trkpt>
      <trkpt lat="52.60754330" lon="23.93852230">
        <ele>168.00000</ele>
        <time>2010-01-01T07:27:33Z</time>
      </trkpt>
      <trkpt lat="52.58689790" lon="23.93852230">
        <ele>197.00000</ele>
        <time>2010-01-01T07:41:19Z</time>
      </trkpt>
      <trkpt lat="52.56921650" lon="23.93835060">
        <ele>181.00000</ele>
        <time>2010-01-01T07:53:07Z</time>
      </trkpt>
      <trkpt lat="52.56916430" lon="23.87440680">
        <ele>175.00000</ele>
        <time>2010-01-01T08:19:03Z</time>
      </trkpt>
      <trkpt lat="52.56916430" lon="23.85981550">
        <ele>178.00000</ele>
        <time>2010-01-01T08:24:58Z</time>
      </trkpt>
      <trkpt lat="52.56921650" lon="23.83689880">
        <ele>162.00000</ele>
        <time>2010-01-01T08:34:15Z</time>
      </trkpt>
      <trkpt lat="52.56900780" lon="23.83595460">
        <ele>163.00000</ele>
        <time>2010-01-01T08:34:40Z</time>
      </trkpt>
      <trkpt lat="52.56206890" lon="23.83578300">
        <ele>161.00000</ele>
        <time>2010-01-01T08:39:17Z</time>
      </trkpt>
      <trkpt lat="52.56243410" lon="23.83389470">
        <ele>164.00000</ele>
        <time>2010-01-01T08:40:06Z</time>
      </trkpt>
      <trkpt lat="52.56457330" lon="23.83011810">
        <ele>160.00000</ele>
        <time>2010-01-01T08:42:11Z</time>
      </trkpt>
      <trkpt lat="52.56457330" lon="23.82848730">
        <ele>157.00000</ele>
        <time>2010-01-01T08:42:51Z</time>
      </trkpt>
      <trkpt lat="52.56509500" lon="23.82659910">
        <ele>158.00000</ele>
        <time>2010-01-01T08:43:41Z</time>
      </trkpt>
      <trkpt lat="52.56483410" lon="23.82471080">
        <ele>163.00000</ele>
        <time>2010-01-01T08:44:29Z</time>
      </trkpt>
      <trkpt lat="52.56540800" lon="23.82350920">
        <ele>163.00000</ele>
        <time>2010-01-01T08:45:06Z</time>
      </trkpt>
      <trkpt lat="52.56592980" lon="23.82247920">
        <ele>163.00000</ele>
        <time>2010-01-01T08:45:38Z</time>
      </trkpt>
      <trkpt lat="52.56765140" lon="23.82084840">
        <ele>159.00000</ele>
        <time>2010-01-01T08:46:58Z</time>
      </trkpt>
      <trkpt lat="52.56869480" lon="23.81741520">
        <ele>157.00000</ele>
        <time>2010-01-01T08:48:31Z</time>
      </trkpt>
      <trkpt lat="52.56921650" lon="23.81484030">
        <ele>160.00000</ele>
        <time>2010-01-01T08:49:37Z</time>
      </trkpt>
      <trkpt lat="52.56947730" lon="23.80969040">
        <ele>162.00000</ele>
        <time>2010-01-01T08:51:43Z</time>
      </trkpt>
      <trkpt lat="52.57005120" lon="23.80539890">
        <ele>159.00000</ele>
        <time>2010-01-01T08:53:30Z</time>
      </trkpt>
      <trkpt lat="52.57161610" lon="23.80445480">
        <ele>156.00000</ele>
        <time>2010-01-01T08:54:37Z</time>
      </trkpt>
    </trkseg>
  </trk>
</gpx>

